Windsor, CA (95492)

10:14 AM PDT on September 02, 2015 (GMT -0700)
Windsor Fire | | Change Station
CLOSE
Current Station
Personal Weather Station
Location: Windsor, CA
Elevation: 128 ft
Nearby Weather Stations

Elev 128 ft 38.54 °N, 122.80 °W | Updated 13 minutes ago

Partly Cloudy
Partly Cloudy
62.1 °F
Feels Like 62.1 °F
N
0.0
Wind Variable Wind from East
Gusts 4.0 mph

Today
High -- | Low -- °F
--% Chance of Precip.
Yesterday
High -- | Low -- °F
Precip. -- in
6:41 AM 7:39 PM
Waning Gibbous, 79% visible
Pressure 29.91 in
Visibility 10.0 miles
Clouds Few 20000 ft
Dew Point 55 °F
Humidity 78%
Rainfall 0.00 in
Snow Depth Not available.
UV 4 out of 12
Pollen 7.10 out of 12
Air Quality Not available.
Flu Activity Not available.
METAR KSTS 021653Z 00000KT 10SM FEW200 17/12 A2992 RMK AO2 SLP126 T01720122
Pressure 29.91 in
Visibility 10.0 miles
Clouds Few 20000 ft
Dew Point 55 °F
Humidity 78%
Rainfall 0.00 in
Snow Depth Not available.
UV 4 out of 12
Pollen 7.10 out of 12
Air Quality Not available.
Flu Activity Not available.
METAR KSTS 021653Z 00000KT 10SM FEW200 17/12 A2992 RMK AO2 SLP126 T01720122

10-Day Weather Forecast

×

Almanac

Astronomy

Sep. 02, 2015 Rise Set
Actual Time
Civil Twilight
Nautical Twilight
Astronomical Twilight
Moon
Length of Visible Light
Length of Day
Tomorrow will be .
, % of the Moon is Illuminated

Today's Extremes

State Highs State Lows

Community

WunderPhotos

Upload Photos

1,851,785 photos uploaded!

WunderBlogs® & News

Nearby

Air Quality

  Air Quality AQ Index Pollutant
Not available.

Snow Depth

Station Depth Elevation

Earthquake Activity

City Distance Mag. Time & Date
Minimum magnitude displayed is 2.5.

Coastal Water Temperatures

Place Temperature

Stations

Nearby Weather Stations

Station Location Temp. Windchill Dew Point Humidity Wind Precip. Elev Updated Type